sensor_id;sensor_type;location;lat;lon;timestamp;pressure;altitude;pressure_sealevel;temperature;humidity
19114;BME280;9689;51.052;13.772;2023-06-10T00:00:57;100159.69;;;18.21;87.63
19114;BME280;9689;51.052;13.772;2023-06-10T00:05:59;100164.22;;;18.19;87.31
19114;BME280;9689;51.052;13.772;2023-06-10T00:11:01;100170.41;;;18.18;87.19
19114;BME280;9689;51.052;13.772;2023-06-10T00:16:02;100172.25;;;18.00;87.13
19114;BME280;9689;51.052;13.772;2023-06-10T00:21:02;100173.78;;;18.04;86.74
19114;BME280;9689;51.052;13.772;2023-06-10T00:26:05;100166.34;;;17.95;84.40
19114;BME280;9689;51.052;13.772;2023-06-10T00:31:06;100179.94;;;17.88;82.19
19114;BME280;9689;51.052;13.772;2023-06-10T00:36:07;100191.66;;;17.82;80.50
19114;BME280;9689;51.052;13.772;2023-06-10T00:41:09;100198.63;;;17.83;79.23
19114;BME280;9689;51.052;13.772;2023-06-10T00:46:11;100203.16;;;17.81;78.93
19114;BME280;9689;51.052;13.772;2023-06-10T00:51:12;100211.06;;;17.81;78.75
19114;BME280;9689;51.052;13.772;2023-06-10T00:56:15;100222.50;;;17.97;80.92
19114;BME280;9689;51.052;13.772;2023-06-10T01:01:16;100223.53;;;17.77;82.01
19114;BME280;9689;51.052;13.772;2023-06-10T01:06:23;100227.81;;;17.61;83.05
19114;BME280;9689;51.052;13.772;2023-06-10T01:11:36;100242.41;;;17.68;82.36
19114;BME280;9689;51.052;13.772;2023-06-10T01:16:37;100242.50;;;17.67;83.08
19114;BME280;9689;51.052;13.772;2023-06-10T01:21:43;100244.72;;;17.57;82.60
19114;BME280;9689;51.052;13.772;2023-06-10T01:26:51;100248.19;;;17.40;82.60
19114;BME280;9689;51.052;13.772;2023-06-10T01:32:00;100238.50;;;17.41;82.70
19114;BME280;9689;51.052;13.772;2023-06-10T01:37:05;100248.59;;;17.50;81.82
19114;BME280;9689;51.052;13.772;2023-06-10T01:42:07;100250.22;;;17.52;82.47
19114;BME280;9689;51.052;13.772;2023-06-10T01:47:09;100258.50;;;17.45;83.35
19114;BME280;9689;51.052;13.772;2023-06-10T01:52:11;100261.00;;;17.48;83.23
19114;BME280;9689;51.052;13.772;2023-06-10T01:57:12;100258.56;;;17.43;84.10
19114;BME280;9689;51.052;13.772;2023-06-10T02:02:13;100265.38;;;17.30;84.94
19114;BME280;9689;51.052;13.772;2023-06-10T02:07:15;100268.47;;;17.21;84.85
19114;BME280;9689;51.052;13.772;2023-06-10T02:12:15;100269.81;;;17.11;85.89
19114;BME280;9689;51.052;13.772;2023-06-10T02:17:16;100274.53;;;17.04;85.77
19114;BME280;9689;51.052;13.772;2023-06-10T02:22:19;100286.09;;;17.00;86.10
19114;BME280;9689;51.052;13.772;2023-06-10T02:27:20;100291.88;;;16.89;86.67
19114;BME280;9689;51.052;13.772;2023-06-10T02:32:21;100290.38;;;16.84;87.28
19114;BME280;9689;51.052;13.772;2023-06-10T02:37:24;100292.31;;;16.80;86.96
19114;BME280;9689;51.052;13.772;2023-06-10T02:42:27;100293.44;;;16.75;87.88
19114;BME280;9689;51.052;13.772;2023-06-10T02:47:29;100286.34;;;16.77;87.60
19114;BME280;9689;51.052;13.772;2023-06-10T02:52:31;100287.13;;;16.79;87.22
19114;BME280;9689;51.052;13.772;2023-06-10T02:57:32;100278.66;;;16.72;86.80
19114;BME280;9689;51.052;13.772;2023-06-10T03:02:35;100277.41;;;16.60;87.47
19114;BME280;9689;51.052;13.772;2023-06-10T03:07:40;100282.66;;;16.60;87.97
19114;BME280;9689;51.052;13.772;2023-06-10T03:12:41;100288.03;;;16.57;88.01
19114;BME280;9689;51.052;13.772;2023-06-10T03:17:44;100297.88;;;16.54;87.80
19114;BME280;9689;51.052;13.772;2023-06-10T03:22:47;100288.34;;;16.51;85.81
19114;BME280;9689;51.052;13.772;2023-06-10T03:27:48;100294.31;;;16.55;85.23
19114;BME280;9689;51.052;13.772;2023-06-10T03:32:49;100295.59;;;16.65;84.58
19114;BME280;9689;51.052;13.772;2023-06-10T03:37:54;100294.09;;;16.80;84.24
19114;BME280;9689;51.052;13.772;2023-06-10T03:42:55;100294.09;;;16.80;84.21
19114;BME280;9689;51.052;13.772;2023-06-10T03:47:56;100301.84;;;16.62;85.23
19114;BME280;9689;51.052;13.772;2023-06-10T03:53:05;100311.22;;;16.70;83.82
19114;BME280;9689;51.052;13.772;2023-06-10T03:58:06;100311.31;;;16.87;83.94
19114;BME280;9689;51.052;13.772;2023-06-10T04:03:06;100308.94;;;17.00;82.54
19114;BME280;9689;51.052;13.772;2023-06-10T04:08:14;100319.56;;;16.98;82.73
19114;BME280;9689;51.052;13.772;2023-06-10T04:13:15;100322.91;;;17.02;81.80
19114;BME280;9689;51.052;13.772;2023-06-10T04:18:24;100323.63;;;17.05;81.54
19114;BME280;9689;51.052;13.772;2023-06-10T04:23:30;100316.31;;;17.12;80.49
19114;BME280;9689;51.052;13.772;2023-06-10T04:28:31;100319.41;;;17.20;80.20
19114;BME280;9689;51.052;13.772;2023-06-10T04:33:32;100323.88;;;17.37;79.53
19114;BME280;9689;51.052;13.772;2023-06-10T04:38:36;100328.34;;;17.53;79.23
19114;BME280;9689;51.052;13.772;2023-06-10T04:43:38;100324.06;;;17.51;78.49
19114;BME280;9689;51.052;13.772;2023-06-10T04:48:38;100325.81;;;17.69;77.58
19114;BME280;9689;51.052;13.772;2023-06-10T04:53:43;100323.94;;;17.73;76.69
19114;BME280;9689;51.052;13.772;2023-06-10T04:58:44;100323.69;;;17.77;75.92
19114;BME280;9689;51.052;13.772;2023-06-10T05:03:46;100329.13;;;17.92;75.74
19114;BME280;9689;51.052;13.772;2023-06-10T05:08:48;100323.53;;;18.15;75.44
19114;BME280;9689;51.052;13.772;2023-06-10T05:13:48;100325.47;;;18.29;75.12
19114;BME280;9689;51.052;13.772;2023-06-10T05:18:49;100325.94;;;18.37;74.49
19114;BME280;9689;51.052;13.772;2023-06-10T05:23:53;100327.16;;;18.47;73.67
19114;BME280;9689;51.052;13.772;2023-06-10T05:28:54;100331.88;;;18.58;72.80
19114;BME280;9689;51.052;13.772;2023-06-10T05:33:56;100333.91;;;18.53;73.15
19114;BME280;9689;51.052;13.772;2023-06-10T05:38:58;100328.00;;;18.65;73.03
19114;BME280;9689;51.052;13.772;2023-06-10T05:43:58;100328.94;;;18.97;71.55
19114;BME280;9689;51.052;13.772;2023-06-10T05:48:59;100331.06;;;19.06;71.15
19114;BME280;9689;51.052;13.772;2023-06-10T05:54:01;100329.81;;;19.13;71.04
19114;BME280;9689;51.052;13.772;2023-06-10T05:59:02;100337.13;;;19.08;70.14
19114;BME280;9689;51.052;13.772;2023-06-10T06:04:03;100328.97;;;19.13;70.17
19114;BME280;9689;51.052;13.772;2023-06-10T06:09:05;100340.72;;;19.39;69.06
19114;BME280;9689;51.052;13.772;2023-06-10T06:14:13;100332.19;;;19.49;68.27
19114;BME280;9689;51.052;13.772;2023-06-10T06:19:20;100336.03;;;19.60;67.34
19114;BME280;9689;51.052;13.772;2023-06-10T06:24:22;100333.19;;;19.79;66.30
19114;BME280;9689;51.052;13.772;2023-06-10T06:29:24;100330.13;;;19.86;66.12
19114;BME280;9689;51.052;13.772;2023-06-10T06:34:26;100337.16;;;20.01;65.67
19114;BME280;9689;51.052;13.772;2023-06-10T06:39:28;100332.69;;;20.18;63.78
19114;BME280;9689;51.052;13.772;2023-06-10T06:44:29;100342.41;;;20.31;64.51
19114;BME280;9689;51.052;13.772;2023-06-10T06:49:30;100348.53;;;20.48;64.97
19114;BME280;9689;51.052;13.772;2023-06-10T06:54:32;100350.16;;;20.65;64.94
19114;BME280;9689;51.052;13.772;2023-06-10T06:59:32;100358.22;;;20.77;64.54
19114;BME280;9689;51.052;13.772;2023-06-10T07:04:33;100371.06;;;21.26;62.67
19114;BME280;9689;51.052;13.772;2023-06-10T07:09:36;100367.34;;;21.57;62.11
19114;BME280;9689;51.052;13.772;2023-06-10T07:14:37;100368.03;;;21.47;61.74
19114;BME280;9689;51.052;13.772;2023-06-10T07:19:38;100373.19;;;21.89;61.23
19114;BME280;9689;51.052;13.772;2023-06-10T07:24:40;100376.50;;;21.93;60.29
19114;BME280;9689;51.052;13.772;2023-06-10T07:29:41;100380.00;;;21.93;60.08
19114;BME280;9689;51.052;13.772;2023-06-10T07:34:41;100379.03;;;21.94;60.25
19114;BME280;9689;51.052;13.772;2023-06-10T07:39:43;100387.13;;;22.33;59.42
19114;BME280;9689;51.052;13.772;2023-06-10T07:44:44;100383.34;;;22.62;58.59
19114;BME280;9689;51.052;13.772;2023-06-10T07:49:46;100381.72;;;22.47;59.00
19114;BME280;9689;51.052;13.772;2023-06-10T07:54:49;100391.84;;;22.67;58.64
19114;BME280;9689;51.052;13.772;2023-06-10T07:59:49;100376.22;;;22.63;58.47
19114;BME280;9689;51.052;13.772;2023-06-10T08:04:50;100382.91;;;22.81;59.52
19114;BME280;9689;51.052;13.772;2023-06-10T08:09:52;100391.41;;;22.73;59.70
19114;BME280;9689;51.052;13.772;2023-06-10T08:14:53;100385.78;;;22.65;59.78
19114;BME280;9689;51.052;13.772;2023-06-10T08:19:54;100390.03;;;22.55;59.93
19114;BME280;9689;51.052;13.772;2023-06-10T08:24:56;100391.31;;;22.75;60.33
19114;BME280;9689;51.052;13.772;2023-06-10T08:29:57;100391.00;;;22.79;59.28
19114;BME280;9689;51.052;13.772;2023-06-10T08:35:00;100396.75;;;22.99;58.65
19114;BME280;9689;51.052;13.772;2023-06-10T08:40:04;100390.09;;;23.42;57.70
19114;BME280;9689;51.052;13.772;2023-06-10T08:45:07;100384.03;;;23.40;57.53
19114;BME280;9689;51.052;13.772;2023-06-10T08:50:10;100370.78;;;23.88;55.79
19114;BME280;9689;51.052;13.772;2023-06-10T08:55:15;100372.50;;;23.65;54.97
19114;BME280;9689;51.052;13.772;2023-06-10T09:00:19;100372.47;;;24.13;54.13
19114;BME280;9689;51.052;13.772;2023-06-10T09:05:20;100380.56;;;24.36;54.00
19114;BME280;9689;51.052;13.772;2023-06-10T09:10:22;100367.19;;;24.60;54.56
19114;BME280;9689;51.052;13.772;2023-06-10T09:15:23;100371.00;;;24.33;52.48
19114;BME280;9689;51.052;13.772;2023-06-10T09:20:24;100358.09;;;24.51;51.88
19114;BME280;9689;51.052;13.772;2023-06-10T09:25:36;100366.69;;;24.66;51.96
19114;BME280;9689;51.052;13.772;2023-06-10T09:30:37;100360.28;;;24.91;50.09
19114;BME280;9689;51.052;13.772;2023-06-10T09:35:45;100360.31;;;25.24;49.14
19114;BME280;9689;51.052;13.772;2023-06-10T09:40:51;100358.59;;;25.46;47.77
19114;BME280;9689;51.052;13.772;2023-06-10T09:45:55;100356.88;;;25.99;47.25
19114;BME280;9689;51.052;13.772;2023-06-10T09:50:56;100357.28;;;26.15;46.21
19114;BME280;9689;51.052;13.772;2023-06-10T09:55:59;100357.06;;;26.07;46.61
19114;BME280;9689;51.052;13.772;2023-06-10T10:00:59;100359.47;;;25.89;46.54
19114;BME280;9689;51.052;13.772;2023-06-10T10:06:00;100349.78;;;25.23;45.67
19114;BME280;9689;51.052;13.772;2023-06-10T10:11:03;100352.44;;;25.23;48.80
19114;BME280;9689;51.052;13.772;2023-06-10T10:16:09;100352.19;;;25.37;48.79
19114;BME280;9689;51.052;13.772;2023-06-10T10:21:12;100345.97;;;25.48;48.22
19114;BME280;9689;51.052;13.772;2023-06-10T10:26:15;100346.94;;;25.47;44.86
19114;BME280;9689;51.052;13.772;2023-06-10T10:31:19;100354.59;;;25.40;45.29
19114;BME280;9689;51.052;13.772;2023-06-10T10:36:21;100355.59;;;25.82;44.01
19114;BME280;9689;51.052;13.772;2023-06-10T10:41:24;100359.63;;;25.65;45.95
19114;BME280;9689;51.052;13.772;2023-06-10T10:46:25;100353.06;;;25.81;47.20
19114;BME280;9689;51.052;13.772;2023-06-10T10:51:33;100352.28;;;25.90;46.85
19114;BME280;9689;51.052;13.772;2023-06-10T10:56:36;100352.75;;;25.95;44.96
19114;BME280;9689;51.052;13.772;2023-06-10T11:01:40;100332.44;;;26.66;41.74
19114;BME280;9689;51.052;13.772;2023-06-10T11:06:52;100327.41;;;27.63;38.72
19114;BME280;9689;51.052;13.772;2023-06-10T11:11:56;100319.97;;;27.76;38.32
19114;BME280;9689;51.052;13.772;2023-06-10T11:16:58;100318.84;;;27.69;38.46
19114;BME280;9689;51.052;13.772;2023-06-10T11:22:00;100315.88;;;28.01;38.47
19114;BME280;9689;51.052;13.772;2023-06-10T11:27:19;100309.84;;;27.90;37.97
19114;BME280;9689;51.052;13.772;2023-06-10T11:32:20;100314.69;;;26.96;40.21
19114;BME280;9689;51.052;13.772;2023-06-10T11:37:21;100308.88;;;27.12;39.90
19114;BME280;9689;51.052;13.772;2023-06-10T11:42:23;100297.00;;;27.74;39.37
19114;BME280;9689;51.052;13.772;2023-06-10T11:47:24;100289.25;;;28.00;38.45
19114;BME280;9689;51.052;13.772;2023-06-10T11:52:27;100290.31;;;28.26;38.84
19114;BME280;9689;51.052;13.772;2023-06-10T11:57:29;100289.06;;;28.30;36.67
19114;BME280;9689;51.052;13.772;2023-06-10T12:02:30;100271.63;;;28.54;36.57
19114;BME280;9689;51.052;13.772;2023-06-10T12:07:31;100281.63;;;28.61;37.55
19114;BME280;9689;51.052;13.772;2023-06-10T12:12:34;100283.50;;;28.51;35.45
19114;BME280;9689;51.052;13.772;2023-06-10T12:17:37;100278.38;;;28.58;36.15
19114;BME280;9689;51.052;13.772;2023-06-10T12:22:39;100279.75;;;28.25;35.59
19114;BME280;9689;51.052;13.772;2023-06-10T12:27:50;100267.81;;;28.00;35.31
19114;BME280;9689;51.052;13.772;2023-06-10T12:32:52;100264.53;;;28.06;34.18
19114;BME280;9689;51.052;13.772;2023-06-10T12:37:57;100259.63;;;28.01;35.14
19114;BME280;9689;51.052;13.772;2023-06-10T12:43:02;100249.41;;;28.14;35.47
19114;BME280;9689;51.052;13.772;2023-06-10T12:48:07;100253.94;;;28.33;35.06
19114;BME280;9689;51.052;13.772;2023-06-10T12:53:11;100240.34;;;28.44;33.39
19114;BME280;9689;51.052;13.772;2023-06-10T12:58:13;100252.44;;;28.49;33.62
19114;BME280;9689;51.052;13.772;2023-06-10T13:03:14;100248.34;;;28.82;32.68
19114;BME280;9689;51.052;13.772;2023-06-10T13:08:16;100247.34;;;28.55;33.58
19114;BME280;9689;51.052;13.772;2023-06-10T13:13:18;100251.81;;;28.27;32.95
19114;BME280;9689;51.052;13.772;2023-06-10T13:18:18;100249.34;;;28.06;32.27
19114;BME280;9689;51.052;13.772;2023-06-10T13:23:19;100238.19;;;28.01;31.37
19114;BME280;9689;51.052;13.772;2023-06-10T13:28:21;100249.69;;;28.31;32.84
19114;BME280;9689;51.052;13.772;2023-06-10T13:33:22;100245.47;;;28.19;32.79
19114;BME280;9689;51.052;13.772;2023-06-10T13:38:22;100243.34;;;28.41;32.29
19114;BME280;9689;51.052;13.772;2023-06-10T13:43:24;100243.03;;;28.72;30.48
19114;BME280;9689;51.052;13.772;2023-06-10T13:48:25;100235.75;;;28.92;28.30
19114;BME280;9689;51.052;13.772;2023-06-10T13:53:26;100229.41;;;28.83;27.54
19114;BME280;9689;51.052;13.772;2023-06-10T13:58:28;100229.03;;;28.78;26.01
19114;BME280;9689;51.052;13.772;2023-06-10T14:03:29;100240.00;;;28.94;24.73
19114;BME280;9689;51.052;13.772;2023-06-10T14:08:29;100234.81;;;29.11;25.44
19114;BME280;9689;51.052;13.772;2023-06-10T14:13:31;100234.41;;;29.06;26.33
19114;BME280;9689;51.052;13.772;2023-06-10T14:18:33;100241.13;;;29.19;26.60
19114;BME280;9689;51.052;13.772;2023-06-10T14:23:34;100235.34;;;29.14;26.42
19114;BME280;9689;51.052;13.772;2023-06-10T14:28:37;100223.38;;;29.09;26.17
19114;BME280;9689;51.052;13.772;2023-06-10T14:33:37;100226.38;;;29.06;27.16
19114;BME280;9689;51.052;13.772;2023-06-10T14:38:39;100228.91;;;29.25;25.77
19114;BME280;9689;51.052;13.772;2023-06-10T14:43:41;100230.81;;;29.33;25.62
19114;BME280;9689;51.052;13.772;2023-06-10T14:48:41;100232.50;;;29.34;25.70
19114;BME280;9689;51.052;13.772;2023-06-10T14:53:42;100215.75;;;29.49;24.52
19114;BME280;9689;51.052;13.772;2023-06-10T14:58:44;100232.16;;;29.46;25.19
19114;BME280;9689;51.052;13.772;2023-06-10T15:03:45;100231.59;;;29.61;26.48
19114;BME280;9689;51.052;13.772;2023-06-10T15:08:45;100220.47;;;29.73;26.65
19114;BME280;9689;51.052;13.772;2023-06-10T15:13:49;100215.13;;;29.99;26.33
19114;BME280;9689;51.052;13.772;2023-06-10T15:18:49;100219.31;;;30.20;26.80
19114;BME280;9689;51.052;13.772;2023-06-10T15:23:50;100219.94;;;30.48;27.28
19114;BME280;9689;51.052;13.772;2023-06-10T15:28:52;100225.78;;;30.35;27.35
19114;BME280;9689;51.052;13.772;2023-06-10T15:33:53;100232.09;;;30.00;28.38
19114;BME280;9689;51.052;13.772;2023-06-10T15:38:54;100218.41;;;30.71;27.37
19114;BME280;9689;51.052;13.772;2023-06-10T15:44:01;100214.66;;;31.14;27.29
19114;BME280;9689;51.052;13.772;2023-06-10T15:49:03;100213.50;;;30.66;26.97
19114;BME280;9689;51.052;13.772;2023-06-10T15:54:04;100218.41;;;30.11;27.76
19114;BME280;9689;51.052;13.772;2023-06-10T15:59:06;100220.41;;;30.09;26.87
19114;BME280;9689;51.052;13.772;2023-06-10T16:04:08;100215.88;;;30.35;26.64
19114;BME280;9689;51.052;13.772;2023-06-10T16:09:09;100208.94;;;31.17;25.50
19114;BME280;9689;51.052;13.772;2023-06-10T16:14:11;100226.41;;;32.52;24.48
19114;BME280;9689;51.052;13.772;2023-06-10T16:19:12;100228.13;;;33.46;22.41
19114;BME280;9689;51.052;13.772;2023-06-10T16:24:13;100229.09;;;34.06;22.16
19114;BME280;9689;51.052;13.772;2023-06-10T16:29:16;100240.16;;;32.65;23.22
19114;BME280;9689;51.052;13.772;2023-06-10T16:34:18;100240.88;;;32.59;23.98
19114;BME280;9689;51.052;13.772;2023-06-10T16:39:18;100244.13;;;32.30;24.31
19114;BME280;9689;51.052;13.772;2023-06-10T16:44:20;100232.69;;;32.75;24.22
19114;BME280;9689;51.052;13.772;2023-06-10T16:49:21;100241.34;;;32.07;24.33
19114;BME280;9689;51.052;13.772;2023-06-10T16:54:22;100250.78;;;30.61;26.54
19114;BME280;9689;51.052;13.772;2023-06-10T16:59:24;100261.19;;;29.33;28.23
19114;BME280;9689;51.052;13.772;2023-06-10T17:04:25;100265.09;;;28.29;29.24
19114;BME280;9689;51.052;13.772;2023-06-10T17:09:26;100267.09;;;27.59;30.20
19114;BME280;9689;51.052;13.772;2023-06-10T17:14:28;100275.09;;;27.11;31.64
19114;BME280;9689;51.052;13.772;2023-06-10T17:19:29;100279.03;;;26.76;31.63
19114;BME280;9689;51.052;13.772;2023-06-10T17:24:30;100286.38;;;26.53;32.38
19114;BME280;9689;51.052;13.772;2023-06-10T17:29:32;100286.97;;;26.36;33.67
19114;BME280;9689;51.052;13.772;2023-06-10T17:34:33;100285.91;;;26.27;33.54
19114;BME280;9689;51.052;13.772;2023-06-10T17:39:34;100292.28;;;26.15;33.95
19114;BME280;9689;51.052;13.772;2023-06-10T17:44:36;100293.63;;;26.00;34.31
19114;BME280;9689;51.052;13.772;2023-06-10T17:49:37;100301.84;;;26.08;34.37
19114;BME280;9689;51.052;13.772;2023-06-10T17:54:38;100294.78;;;26.79;33.49
19114;BME280;9689;51.052;13.772;2023-06-10T17:59:40;100299.78;;;26.63;33.73
19114;BME280;9689;51.052;13.772;2023-06-10T18:04:42;100302.81;;;26.07;35.29
19114;BME280;9689;51.052;13.772;2023-06-10T18:09:43;100308.44;;;25.60;36.78
19114;BME280;9689;51.052;13.772;2023-06-10T18:14:45;100303.91;;;25.40;36.94
19114;BME280;9689;51.052;13.772;2023-06-10T18:19:46;100313.09;;;25.36;37.71
19114;BME280;9689;51.052;13.772;2023-06-10T18:24:46;100313.03;;;25.15;38.55
19114;BME280;9689;51.052;13.772;2023-06-10T18:29:48;100313.25;;;25.01;39.67
19114;BME280;9689;51.052;13.772;2023-06-10T18:34:49;100319.47;;;24.79;41.30
19114;BME280;9689;51.052;13.772;2023-06-10T18:39:52;100324.50;;;24.48;41.34
19114;BME280;9689;51.052;13.772;2023-06-10T18:44:53;100324.59;;;24.24;42.42
19114;BME280;9689;51.052;13.772;2023-06-10T18:49:54;100334.91;;;24.05;44.50
19114;BME280;9689;51.052;13.772;2023-06-10T18:54:55;100351.81;;;23.93;44.41
19114;BME280;9689;51.052;13.772;2023-06-10T18:59:57;100357.63;;;23.50;44.94
19114;BME280;9689;51.052;13.772;2023-06-10T19:04:58;100365.56;;;23.26;46.07
19114;BME280;9689;51.052;13.772;2023-06-10T19:09:59;100364.75;;;23.13;47.12
19114;BME280;9689;51.052;13.772;2023-06-10T19:15:01;100380.09;;;22.97;47.90
19114;BME280;9689;51.052;13.772;2023-06-10T19:20:03;100395.03;;;22.72;48.38
19114;BME280;9689;51.052;13.772;2023-06-10T19:25:05;100407.16;;;22.51;49.21
19114;BME280;9689;51.052;13.772;2023-06-10T19:30:09;100412.09;;;22.30;49.90
19114;BME280;9689;51.052;13.772;2023-06-10T19:35:10;100415.22;;;22.10;51.60
19114;BME280;9689;51.052;13.772;2023-06-10T19:40:11;100426.31;;;22.02;52.01
19114;BME280;9689;51.052;13.772;2023-06-10T19:45:13;100431.66;;;21.88;52.62
19114;BME280;9689;51.052;13.772;2023-06-10T19:50:14;100427.94;;;21.63;53.38
19114;BME280;9689;51.052;13.772;2023-06-10T19:55:15;100430.88;;;21.59;54.08
19114;BME280;9689;51.052;13.772;2023-06-10T20:00:18;100430.03;;;21.44;54.89
19114;BME280;9689;51.052;13.772;2023-06-10T20:05:18;100434.28;;;21.18;55.48
19114;BME280;9689;51.052;13.772;2023-06-10T20:10:21;100439.13;;;20.97;56.11
19114;BME280;9689;51.052;13.772;2023-06-10T20:15:23;100452.19;;;20.86;56.10
19114;BME280;9689;51.052;13.772;2023-06-10T20:20:24;100448.94;;;20.81;56.60
19114;BME280;9689;51.052;13.772;2023-06-10T20:25:25;100457.72;;;20.81;55.98
19114;BME280;9689;51.052;13.772;2023-06-10T20:30:27;100462.66;;;20.87;56.19
19114;BME280;9689;51.052;13.772;2023-06-10T20:35:28;100474.31;;;20.85;55.11
19114;BME280;9689;51.052;13.772;2023-06-10T20:40:28;100472.72;;;20.67;55.35
19114;BME280;9689;51.052;13.772;2023-06-10T20:45:31;100477.25;;;20.50;55.69
19114;BME280;9689;51.052;13.772;2023-06-10T20:50:32;100477.31;;;20.49;56.30
19114;BME280;9689;51.052;13.772;2023-06-10T20:55:32;100477.91;;;20.38;56.32
19114;BME280;9689;51.052;13.772;2023-06-10T21:00:35;100484.78;;;20.26;56.43
19114;BME280;9689;51.052;13.772;2023-06-10T21:05:36;100487.94;;;20.33;55.46
19114;BME280;9689;51.052;13.772;2023-06-10T21:10:37;100485.97;;;20.21;56.02
19114;BME280;9689;51.052;13.772;2023-06-10T21:15:39;100498.88;;;19.95;55.88
19114;BME280;9689;51.052;13.772;2023-06-10T21:20:40;100506.13;;;19.76;55.73
19114;BME280;9689;51.052;13.772;2023-06-10T21:25:40;100506.75;;;19.81;55.58
19114;BME280;9689;51.052;13.772;2023-06-10T21:30:42;100510.28;;;19.80;56.03
19114;BME280;9689;51.052;13.772;2023-06-10T21:35:43;100516.44;;;19.65;56.03
19114;BME280;9689;51.052;13.772;2023-06-10T21:40:44;100518.22;;;19.64;56.15
19114;BME280;9689;51.052;13.772;2023-06-10T21:45:46;100524.78;;;19.57;56.59
19114;BME280;9689;51.052;13.772;2023-06-10T21:50:46;100526.72;;;19.36;57.75
19114;BME280;9689;51.052;13.772;2023-06-10T21:55:47;100534.81;;;19.33;58.26
19114;BME280;9689;51.052;13.772;2023-06-10T22:00:49;100528.31;;;19.23;58.55
19114;BME280;9689;51.052;13.772;2023-06-10T22:05:51;100537.03;;;19.08;59.21
19114;BME280;9689;51.052;13.772;2023-06-10T22:10:51;100535.63;;;19.18;59.87
19114;BME280;9689;51.052;13.772;2023-06-10T22:15:53;100536.56;;;19.00;60.50
19114;BME280;9689;51.052;13.772;2023-06-10T22:20:54;100535.09;;;18.77;60.80
19114;BME280;9689;51.052;13.772;2023-06-10T22:25:55;100528.63;;;18.65;61.15
19114;BME280;9689;51.052;13.772;2023-06-10T22:30:57;100533.00;;;18.47;61.93
19114;BME280;9689;51.052;13.772;2023-06-10T22:35:58;100535.81;;;18.44;61.95
19114;BME280;9689;51.052;13.772;2023-06-10T22:40:59;100530.41;;;18.28;62.45
19114;BME280;9689;51.052;13.772;2023-06-10T22:46:01;100530.16;;;18.33;62.22
19114;BME280;9689;51.052;13.772;2023-06-10T22:51:01;100533.06;;;18.10;62.46
19114;BME280;9689;51.052;13.772;2023-06-10T22:56:02;100532.09;;;17.93;63.97
19114;BME280;9689;51.052;13.772;2023-06-10T23:01:05;100544.00;;;17.83;63.33
19114;BME280;9689;51.052;13.772;2023-06-10T23:06:06;100534.00;;;17.71;63.96
19114;BME280;9689;51.052;13.772;2023-06-10T23:11:07;100527.53;;;17.78;62.93
19114;BME280;9689;51.052;13.772;2023-06-10T23:16:09;100537.44;;;17.52;63.54
19114;BME280;9689;51.052;13.772;2023-06-10T23:21:09;100546.19;;;17.53;63.82
19114;BME280;9689;51.052;13.772;2023-06-10T23:26:10;100542.59;;;17.56;62.57
19114;BME280;9689;51.052;13.772;2023-06-10T23:31:12;100548.13;;;17.49;62.48
19114;BME280;9689;51.052;13.772;2023-06-10T23:36:13;100546.00;;;17.37;62.14
19114;BME280;9689;51.052;13.772;2023-06-10T23:41:15;100544.25;;;17.38;63.28
19114;BME280;9689;51.052;13.772;2023-06-10T23:46:17;100562.09;;;17.31;62.45
19114;BME280;9689;51.052;13.772;2023-06-10T23:51:18;100552.63;;;17.07;61.54
19114;BME280;9689;51.052;13.772;2023-06-10T23:56:19;100545.97;;;17.18;63.00
